Latest Weather Observations for Tarcoola

IDS60801

Issued at 12:01 pm CDT Sunday 18 November 2018 (issued every 10 minutes, with the page automatically refreshed every 10 minutes)

About weather observations | Map of weather stations | Latest weather observations for SA | Other Formats
Station Details ID: 016098 Name: TARCOOLA AERO Lat: -30.71 Lon: 134.58 Height: 123.0 m
Data from the previous 72 hours. | See also: Recent months at Tarcoola
Date/Time
CDT
Temp
°C
App
Temp
°C
Dew
Point
°C
Rel
Hum
%
Delta-T
°C
Wind Press
QNH
hPa
Press
MSL
hPa
Rain since
9am
mm
Dir  Spd
km/h
Gust
km/h
Spd
kts
Gust
kts
18/12:00pm 32.0 26.3 -3.4 10 16.3 NNE 17 26 9 14 1014.4 1013.8 0.0
18/11:30am 31.2 25.2 -2.7 11 15.7 NNE 19 28 10 15 1014.8 1014.2 0.0
18/11:00am 29.8 24.0 -1.5 13 14.6 NNE 19 28 10 15 1015.0 1014.5 0.0
18/10:30am 28.2 22.7 -1.8 14 13.8 NE 17 26 9 14 1015.5 1015.0 0.0
18/10:00am 26.8 21.8 1.3 19 12.2 ENE 17 24 9 13 1015.6 1015.1 0.0
18/09:30am 25.1 19.8 3.1 24 10.8 ENE 20 24 11 13 1015.8 1015.3 0.0
18/09:00am 23.8 18.5 3.2 26 10.0 ENE 20 26 11 14 1015.5 1015.0 0.0
18/08:30am 22.4 17.2 3.5 29 9.2 E 20 26 11 14 1015.4 1014.9 0.0
18/08:00am 20.8 15.5 3.1 31 8.4 E 20 26 11 14 1015.2 1014.7 0.0
18/07:30am 19.4 14.5 2.3 32 7.9 E 17 22 9 12 1015.2 1014.7 0.0
18/07:00am 18.2 13.7 2.1 34 7.4 E 15 20 8 11 1015.0 1014.5 0.0
18/06:30am 16.9 12.3 1.4 35 6.9 ENE 15 17 8 9 1014.9 1014.3 0.0
18/06:00am 17.6 13.3 0.7 32 7.5 E 13 17 7 9 1014.5 1013.9 0.0
18/05:30am 18.0 13.1 -0.3 29 7.9 E 15 20 8 11 1014.3 1013.7 0.0
18/05:00am 18.3 13.8 -0.5 28 8.1 ESE 13 17 7 9 1014.4 1013.8 0.0
18/04:30am 19.3 14.0 -0.7 26 8.7 ESE 17 20 9 11 1014.5 1013.9 0.0
18/04:00am 19.5 14.4 -1.6 24 9.0 ESE 15 19 8 10 1014.6 1014.0 0.0
18/03:30am 20.7 15.0 -1.1 23 9.5 ESE 19 24 10 13 1014.7 1014.1 0.0
18/03:00am 20.3 15.3 -1.5 23 9.4 ESE 15 20 8 11 1014.9 1014.3 0.0
18/02:30am 15.5 13.4 6.0 53 4.6 E 6 7 3 4 1015.1 1014.6 0.0
18/02:00am 15.7 13.8 4.7 48 5.2 ESE 4 7 2 4 1015.2 1014.7 0.0
18/01:30am 16.4 14.9 3.1 41 6.1 CALM 0 0 0 0 1015.6 1015.1 0.0
18/01:00am 16.9 15.4 2.9 39 6.4 CALM 0 0 0 0 1016.0 1015.5 0.0
18/12:30am 17.3 15.5 1.3 34 7.1 CALM 0 0 0 0 1016.5 1016.0 0.0
18/12:00am 19.1 15.7 -0.3 27 8.5 NE 7 9 4 5 1016.6 1016.1 0.0
 
Date/Time
CDT
Temp
°C
App
Temp
°C
Dew
Point
°C
Rel
Hum
%
Delta-T
°C
Wind Press
QNH
hPa
Press
MSL
hPa
Rain since
9am
mm
Dir  Spd
km/h
Gust
km/h
Spd
kts
Gust
kts
17/11:30pm 18.9 15.7 0.5 29 8.2 ENE 7 9 4 5 1017.0 1016.5 0.0
17/11:00pm 19.7 16.4 0.2 27 8.7 E 7 9 4 5 1017.2 1016.7 0.0
17/10:30pm 21.6 17.2 -2.3 20 10.3 E 11 15 6 8 1017.3 1016.8 0.0
17/10:00pm 23.0 18.0 -4.1 16 11.4 ESE 13 15 7 8 1017.1 1016.6 0.0
17/09:30pm 23.5 18.6 -3.7 16 11.6 ESE 13 13 7 7 1017.1 1016.6 0.0
17/09:00pm 24.4 19.3 -4.8 14 12.3 ESE 13 15 7 8 1017.0 1016.5 0.0
17/08:30pm 26.1 21.0 -5.5 12 13.3 ESE 13 15 7 8 1016.9 1016.4 0.0
17/08:00pm 28.0 22.9 -5.2 11 14.3 SE 13 17 7 9 1016.6 1016.1 0.0
17/07:30pm 29.3 24.2 -5.4 10 15.1 SE 13 20 7 11 1016.3 1015.8 0.0
17/07:00pm 29.6 24.4 -6.6 9 15.4 SE 13 22 7 12 1016.1 1015.6 0.0
17/06:30pm 30.1 26.5 -3.6 11 15.2 SSE 6 15 3 8 1016.1 1015.6 0.0
17/06:00pm 30.3 25.0 -3.4 11 15.3 SE 15 24 8 13 1016.1 1015.6 0.0
17/05:30pm 30.1 24.6 -2.4 12 15.0 SSE 17 30 9 16 1016.3 1015.8 0.0
17/05:00pm 29.9 24.7 -2.6 12 14.9 S 15 28 8 15 1016.4 1015.9 0.0
17/04:30pm 29.7 25.3 -2.7 12 14.8 S 11 19 6 10 1016.7 1016.2 0.0
17/04:00pm 29.6 25.8 -0.7 14 14.3 ESE 9 15 5 8 1017.1 1016.6 0.0
17/03:30pm 29.7 25.5 -0.6 14 14.3 SE 11 22 6 12 1017.6 1017.1 0.0
17/03:00pm 28.5 24.5 0.3 16 13.4 S 11 24 6 13 1018.1 1017.6 0.0
17/02:30pm 27.9 23.4 2.2 19 12.6 S 15 22 8 12 1018.6 1018.1 0.0
17/02:00pm 27.8 24.7 3.5 21 12.2 ESE 9 19 5 10 1019.3 1018.8 0.0
17/01:30pm 26.8 23.3 3.3 22 11.7 S 11 17 6 9 1019.8 1019.3 0.0
17/01:00pm 25.8 22.0 3.7 24 11.0 SE 13 24 7 13 1020.6 1020.0 0.0
17/12:30pm 25.7 22.3 4.2 25 10.8 ESE 11 24 6 13 1021.1 1020.5 0.0
17/12:00pm 24.4 20.3 4.2 27 10.0 SE 15 20 8 11 1021.5 1020.9 0.0
17/11:30am 24.3 19.4 5.1 29 9.7 SE 20 30 11 16 1021.7 1021.1 0.0
17/11:00am 23.3 18.6 5.2 31 9.1 ESE 19 28 10 15 1022.0 1021.4 0.0
17/10:30am 22.4 17.6 5.8 34 8.4 SE 20 30 11 16 1022.0 1021.4 0.0
17/10:00am 21.8 16.1 6.5 37 7.8 ESE 26 37 14 20 1022.1 1021.6 0.0
17/09:30am 21.1 15.8 8.4 44 6.7 SE 26 35 14 19 1021.9 1021.3 0.0
17/09:00am 20.6 15.1 9.2 48 6.1 ESE 28 39 15 21 1021.9 1021.3 0.0
17/08:30am 20.1 15.6 8.4 47 6.1 SE 22 30 12 16 1021.6 1021.0 0.0
17/08:00am 19.4 14.7 7.8 47 6.0 SE 22 30 12 16 1021.4 1020.8 0.0
17/07:30am 18.6 13.8 5.8 43 6.3 SE 20 28 11 15 1021.2 1020.6 0.0
17/07:00am 17.8 14.3 3.3 38 6.8 SSE 11 17 6 9 1021.2 1020.6 0.0
17/06:30am 17.2 12.9 -1.4 28 7.8 SSE 11 15 6 8 1020.7 1020.1 0.0
17/06:00am 17.2 13.4 -1.0 29 7.7 SE 9 13 5 7 1020.1 1019.6 0.0
17/05:30am 16.9 12.8 -0.3 31 7.4 SSE 11 13 6 7 1019.9 1019.4 0.0
17/05:00am 17.1 13.8 0.3 32 7.3 E 7 9 4 5 1019.8 1019.3 0.0
17/04:30am 18.8 14.6 -1.1 26 8.5 ESE 11 15 6 8 1019.7 1019.2 0.0
17/04:00am 20.0 15.0 -1.2 24 9.2 ESE 15 20 8 11 1019.8 1019.3 0.0
17/03:30am 20.5 15.9 -0.7 24 9.3 SE 13 20 7 11 1019.7 1019.2 0.0
17/03:00am 20.9 16.4 -0.4 24 9.4 SE 13 19 7 10 1019.7 1019.2 0.0
17/02:30am 19.8 16.6 3.1 33 7.9 SE 9 17 5 9 1019.9 1019.4 0.0
17/02:00am 19.6 16.8 2.9 33 7.8 SSE 7 7 4 4 1020.2 1019.7 0.0
17/01:30am 21.3 17.6 2.6 29 8.8 S 11 15 6 8 1020.3 1019.8 0.0
17/01:00am 22.4 18.0 2.5 27 9.5 SSE 15 20 8 11 1020.6 1020.0 0.0
17/12:30am 22.9 18.1 2.4 26 9.7 SSE 17 22 9 12 1020.8 1020.2 0.0
17/12:00am 23.7 18.3 2.5 25 10.1 SSE 20 28 11 15 1020.9 1020.3 0.0
 
Date/Time
CDT
Temp
°C
App
Temp
°C
Dew
Point
°C
Rel
Hum
%
Delta-T
°C
Wind Press
QNH
hPa
Press
MSL
hPa
Rain since
9am
mm
Dir  Spd
km/h
Gust
km/h
Spd
kts
Gust
kts
16/11:30pm 24.1 18.8 2.9 25 10.3 S 20 28 11 15 1020.9 1020.3 0.0
16/11:00pm 24.9 18.8 3.0 24 10.7 S 24 33 13 18 1020.8 1020.2 0.0
16/10:30pm 25.7 19.3 3.0 23 11.1 S 26 33 14 18 1020.7 1020.1 0.0
16/10:00pm 26.3 20.0 1.6 20 11.9 S 24 33 13 18 1020.3 1019.8 0.0
16/09:30pm 27.1 20.2 0.0 17 12.7 S 26 35 14 19 1019.8 1019.3 0.0
16/09:00pm 27.4 21.3 0.2 17 12.8 SSW 22 28 12 15 1019.3 1018.8 0.0
16/08:30pm 28.7 22.4 -5.9 10 14.8 S 19 24 10 13 1018.8 1018.3 0.0
16/08:00pm 29.9 23.0 -6.4 9 15.6 SSE 22 32 12 17 1018.3 1017.8 0.0
16/07:30pm 31.2 24.8 -5.4 9 16.1 S 20 30 11 16 1017.7 1017.2 0.0
16/07:00pm 32.0 26.7 -3.4 10 16.3 S 15 24 8 13 1017.5 1017.0 0.0
16/06:30pm 32.5 26.7 -4.4 9 16.7 SW 17 26 9 14 1017.4 1016.9 0.0
16/06:00pm 32.2 26.9 -3.2 10 16.3 SSE 15 24 8 13 1017.3 1016.8 0.0
16/05:30pm 32.3 26.3 -3.2 10 16.4 SSW 19 37 10 20 1017.5 1017.0 0.0
16/05:00pm 32.6 27.8 -2.9 10 16.5 SW 13 24 7 13 1017.4 1016.9 0.0
16/04:30pm 33.0 28.2 -2.6 10 16.7 SSW 13 30 7 16 1017.3 1016.8 0.0
16/04:00pm 33.0 28.4 -1.4 11 16.5 S 13 32 7 17 1017.5 1017.0 0.0
16/03:30pm 32.2 27.5 -2.0 11 16.1 SSW 13 28 7 15 1017.9 1017.4 0.0
16/03:00pm 32.7 26.7 -2.9 10 16.6 SSW 19 30 10 16 1018.3 1017.8 0.0
16/02:30pm 31.4 26.6 -2.6 11 15.7 SSW 13 22 7 12 1018.7 1018.2 0.0
16/02:00pm 31.4 26.8 -1.4 12 15.5 S 13 20 7 11 1019.0 1018.5 0.0
16/01:30pm 30.4 27.2 0.9 15 14.4 SSE 7 15 4 8 1019.5 1019.0 0.0
16/01:00pm 29.9 26.0 1.4 16 14.0 S 11 20 6 11 1020.0 1019.5 0.0
16/12:30pm 29.2 26.3 2.5 18 13.3 S 7 28 4 15 1020.3 1019.8 0.0
16/12:00pm 28.6 25.3 2.7 19 12.9 SSW 9 15 5 8 1020.9 1020.3 0.0
16/11:30am 27.6 23.9 2.6 20 12.3 SE 11 19 6 10 1021.3 1020.7 0.0
16/11:00am 27.2 23.9 4.3 23 11.6 E 11 17 6 9 1021.4 1020.8 0.0
16/10:30am 26.2 22.9 4.6 25 10.9 E 11 17 6 9 1021.4 1020.8 0.0
16/10:00am 24.7 20.8 5.5 29 9.8 E 15 20 8 11 1021.5 1020.9 0.0
16/09:30am 23.7 20.2 5.6 31 9.2 ESE 13 17 7 9 1021.6 1021.0 0.0
16/09:00am 22.3 19.1 5.3 33 8.5 ESE 11 17 6 9 1021.5 1020.9 0.0
16/08:30am 20.9 17.5 5.7 37 7.6 ESE 13 19 7 10 1021.4 1020.8 0.0
16/08:00am 17.5 15.8 8.4 55 4.7 SSW 7 9 4 5 1021.4 1020.8 0.0
16/07:30am 15.0 13.0 8.5 65 3.3 SW 9 13 5 7 1021.4 1020.8 0.0
16/07:00am 13.8 13.1 8.4 70 2.7 WSW 2 9 1 5 1020.9 1020.3 0.0
16/06:30am 12.7 10.6 8.2 74 2.2 WSW 9 13 5 7 1020.3 1019.8 0.0
16/06:00am 12.7 10.2 8.2 74 2.2 SW 11 13 6 7 1019.6 1019.1 0.0
16/05:30am 13.3 10.5 8.4 72 2.5 SW 13 15 7 8 1019.8 1019.3 0.0
16/05:00am 13.7 12.9 8.3 70 2.7 SW 2 6 1 3 1019.6 1019.1 0.0
16/04:30am 14.2 11.8 8.6 69 2.8 SW 11 13 6 7 1019.6 1019.1 0.0
16/04:00am 14.8 12.4 8.7 67 3.1 SW 11 13 6 7 1019.8 1019.3 0.0
16/03:30am 15.3 12.9 8.5 64 3.5 SW 11 11 6 6 1019.8 1019.3 0.0
16/03:00am 16.4 14.4 8.6 60 4.0 SSW 9 15 5 8 1020.0 1019.5 0.0
16/02:30am 17.1 13.6 8.8 58 4.3 SSW 17 20 9 11 1020.1 1019.6 0.0
16/02:00am 17.6 14.5 8.7 56 4.6 SSW 15 19 8 10 1020.3 1019.8 0.0
16/01:30am 18.2 15.4 8.5 53 5.0 SSW 13 17 7 9 1020.6 1020.0 0.0
16/01:00am 19.1 15.9 8.4 50 5.6 SW 15 20 8 11 1021.0 1020.4 0.0
16/12:30am 19.9 16.6 7.9 46 6.2 SW 15 19 8 10 1021.0 1020.4 0.0
16/12:00am 20.6 17.5 7.2 42 6.9 SSW 13 19 7 10 1020.9 1020.3 0.0
 
Date/Time
CDT
Temp
°C
App
Temp
°C
Dew
Point
°C
Rel
Hum
%
Delta-T
°C
Wind Press
QNH
hPa
Press
MSL
hPa
Rain since
9am
mm
Dir  Spd
km/h
Gust
km/h
Spd
kts
Gust
kts
15/11:30pm 21.6 17.6 6.7 38 7.6 SSW 17 22 9 12 1020.9 1020.3 0.0
15/11:00pm 21.7 18.2 5.6 35 8.1 SSW 13 17 7 9 1020.8 1020.2 0.0
15/10:30pm 22.3 18.8 3.4 29 9.1 SSW 11 17 6 9 1020.6 1020.0 0.0
15/10:00pm 22.0 18.3 2.2 27 9.3 S 11 19 6 10 1020.2 1019.7 0.0
15/09:30pm 23.4 19.8 2.8 26 9.9 S 11 11 6 6 1019.6 1019.1 0.0
15/09:00pm 25.0 21.2 1.8 22 11.1 S 11 15 6 8 1019.3 1018.8 0.0
15/08:30pm 25.7 21.6 2.4 22 11.3 S 13 15 7 8 1019.2 1018.7 0.0
15/08:00pm 27.7 23.4 1.2 18 12.8 SSW 13 17 7 9 1019.3 1018.8 0.0
15/07:30pm 28.8 24.5 1.3 17 13.4 SSW 13 22 7 12 1019.2 1018.7 0.0
15/07:00pm 29.6 25.7 1.1 16 13.9 SSW 11 20 6 11 1019.2 1018.7 0.0
15/06:30pm 29.8 25.9 1.3 16 13.9 SSW 11 28 6 15 1019.1 1018.6 0.0
15/06:00pm 29.7 25.4 1.2 16 13.9 SSW 13 22 7 12 1019.2 1018.7 0.0
15/05:30pm 30.1 26.0 2.4 17 13.8 S 13 26 7 14 1019.3 1018.8 0.0
15/05:00pm 30.1 26.4 2.4 17 13.9 SW 11 28 6 15 1019.2 1018.7 0.0
15/04:30pm 29.1 25.0 2.4 18 13.2 SSW 13 24 7 13 1019.4 1018.9 0.0
15/04:00pm 29.2 26.6 4.0 20 12.9 SE 7 20 4 11 1019.8 1019.3 0.0
15/03:30pm 29.1 26.4 3.9 20 12.8 SSW 7 19 4 10 1020.2 1019.7 0.0
15/03:00pm 28.0 24.8 3.0 20 12.4 S 9 19 5 10 1020.8 1020.2 0.0
15/02:30pm 27.8 24.6 2.8 20 12.4 SSE 9 26 5 14 1021.3 1020.7 0.0
15/02:00pm 26.8 23.8 4.0 23 11.5 SSW 9 19 5 10 1021.8 1021.2 0.0
15/01:30pm 26.3 23.1 5.3 26 10.8 WSW 11 22 6 12 1022.2 1021.7 0.0
15/01:00pm 25.8 22.4 5.9 28 10.3 S 13 22 7 12 1022.6 1022.1 0.0
15/12:30pm 25.0 23.6 7.2 32 9.4 WSW 4 13 2 7 1023.0 1022.5 0.0

Other Formats:

Comma delimited format used in spreadsheet applications
http://www.bom.gov.au/fwo/IDS60801/IDS60801.94655.axf

JavaScript Object Notation format (JSON) in row-major order
http://www.bom.gov.au/fwo/IDS60801/IDS60801.94655.json